createdAt,value
2018-08-12T00:27:07.279Z,77.00
2018-08-12T00:29:35.847Z,88.40
2018-08-12T00:32:04.442Z,88.50
2018-08-12T00:34:33.026Z,88.90
2018-08-12T00:37:02.023Z,88.40
2018-08-12T00:39:30.644Z,88.40
2018-08-12T00:41:59.298Z,89.20
2018-08-12T00:44:27.961Z,88.60
2018-08-12T00:46:56.988Z,89.30
2018-08-12T00:49:25.543Z,89.20
2018-08-12T00:51:54.071Z,89.20
2018-08-12T00:54:23.058Z,89.10
2018-08-12T00:56:51.614Z,89.00
2018-08-12T00:59:20.186Z,89.50
2018-08-12T01:01:48.785Z,90.20
2018-08-12T01:04:17.313Z,90.30
2018-08-12T01:06:45.847Z,90.30
2018-08-12T01:09:14.430Z,90.10
2018-08-12T01:11:42.918Z,90.20
2018-08-12T01:14:11.522Z,90.20
2018-08-12T01:16:40.064Z,90.30
2018-08-12T01:19:08.661Z,90.40
2018-08-12T01:21:37.196Z,90.60
2018-08-12T01:24:06.018Z,90.90
2018-08-12T01:26:35.023Z,90.80
2018-08-12T01:29:04.027Z,90.30
2018-08-12T01:31:32.579Z,90.40
2018-08-12T01:34:02.056Z,90.40
2018-08-12T01:36:30.588Z,90.80
2018-08-12T01:38:59.530Z,91.00
2018-08-12T01:41:28.072Z,90.60
2018-08-12T01:43:56.645Z,90.60
2018-08-12T01:46:25.557Z,90.70
2018-08-12T01:48:54.420Z,90.90
2018-08-12T01:51:22.994Z,90.90
2018-08-12T01:53:51.545Z,90.80
2018-08-12T01:56:20.098Z,91.10
2018-08-12T01:58:48.659Z,91.10
2018-08-12T02:01:17.223Z,91.10
2018-08-12T02:03:46.510Z,91.00
2018-08-12T02:06:15.026Z,91.20
2018-08-12T02:08:43.564Z,91.00
2018-08-12T02:11:12.115Z,91.00
2018-08-12T02:13:40.586Z,91.20
2018-08-12T02:16:09.448Z,91.30
2018-08-12T02:18:37.949Z,91.60
2018-08-12T02:21:06.480Z,91.50
2018-08-12T02:23:35.020Z,91.80
2018-08-12T02:26:03.634Z,91.60
2018-08-12T02:28:32.132Z,91.50
2018-08-12T02:31:00.799Z,91.90
2018-08-12T02:33:29.591Z,92.10
2018-08-12T02:35:58.224Z,91.90
2018-08-12T02:38:27.127Z,91.90
2018-08-12T02:40:55.873Z,91.90
2018-08-12T02:43:24.611Z,91.90
2018-08-12T02:45:53.071Z,91.90
2018-08-12T02:48:21.628Z,91.80
2018-08-12T02:50:50.119Z,91.90
2018-08-12T02:53:18.631Z,91.80
2018-08-12T02:55:51.199Z,91.90
2018-08-12T02:58:20.299Z,92.20
2018-08-12T03:00:48.987Z,92.10
2018-08-12T03:03:18.283Z,92.10
2018-08-12T03:05:47.091Z,92.00
2018-08-12T03:08:15.630Z,92.10
2018-08-12T03:10:44.181Z,92.30
2018-08-12T03:13:13.376Z,92.20
2018-08-12T03:15:41.919Z,92.40
2018-08-12T03:18:10.542Z,92.80
2018-08-12T03:20:39.071Z,92.80
2018-08-12T03:23:07.619Z,93.00
2018-08-12T03:25:36.182Z,93.30
2018-08-12T03:28:04.841Z,93.10
2018-08-12T03:30:33.551Z,93.00
2018-08-12T03:33:02.114Z,93.20
2018-08-12T03:35:30.674Z,93.20
2018-08-12T03:37:59.685Z,92.90
2018-08-12T03:40:28.194Z,92.60
2018-08-12T03:42:56.731Z,92.70
2018-08-12T03:45:25.218Z,92.70
2018-08-12T03:47:53.713Z,92.70
2018-08-12T03:50:22.198Z,92.70
2018-08-12T03:52:50.723Z,93.00
2018-08-12T03:55:19.448Z,93.10
2018-08-12T03:57:48.046Z,93.20
2018-08-12T04:00:18.894Z,92.90
2018-08-12T04:02:48.422Z,93.10
2018-08-12T04:05:17.754Z,93.10
2018-08-12T04:07:46.309Z,93.20
2018-08-12T04:10:14.812Z,93.10
2018-08-12T04:12:44.234Z,93.30
2018-08-12T04:15:13.132Z,93.30
2018-08-12T04:17:41.854Z,93.50
2018-08-12T04:20:11.412Z,93.60
2018-08-12T04:22:40.023Z,93.60
2018-08-12T04:25:08.599Z,93.60
2018-08-12T04:27:37.102Z,93.60
2018-08-12T04:30:07.425Z,93.60
2018-08-12T04:32:36.307Z,93.80
2018-08-12T04:35:05.463Z,94.00
2018-08-12T04:37:33.987Z,94.10
2018-08-12T04:40:02.503Z,94.30
2018-08-12T04:42:31.140Z,94.30
2018-08-12T04:44:59.712Z,94.60
2018-08-12T04:47:28.279Z,94.70
2018-08-12T04:49:57.095Z,94.80
2018-08-12T04:52:25.604Z,94.70
2018-08-12T04:54:54.148Z,94.80
2018-08-12T04:57:23.707Z,94.90
2018-08-12T04:59:52.215Z,94.90
2018-08-12T05:02:21.540Z,94.80
2018-08-12T05:04:50.112Z,94.50
2018-08-12T05:07:19.015Z,94.50
2018-08-12T05:09:47.533Z,94.50
2018-08-12T05:12:16.420Z,94.20
2018-08-12T05:14:45.000Z,94.00
2018-08-12T05:17:13.846Z,93.90
2018-08-12T05:19:43.969Z,93.50
2018-08-12T05:22:12.576Z,93.60
2018-08-12T05:24:41.390Z,93.30
2018-08-12T05:27:09.930Z,92.70
2018-08-12T05:29:38.508Z,92.90
2018-08-12T05:32:07.392Z,92.90
2018-08-12T05:34:35.945Z,91.80
2018-08-12T05:37:04.622Z,91.70
2018-08-12T05:39:33.157Z,89.80
2018-08-12T05:42:01.723Z,90.30
2018-08-12T05:44:30.310Z,90.40
2018-08-12T05:46:59.139Z,90.70
2018-08-12T05:49:27.930Z,90.20
2018-08-12T05:51:56.531Z,90.30
2018-08-12T05:54:25.373Z,90.20
2018-08-12T05:56:54.242Z,90.20
2018-08-12T05:59:23.167Z,90.70
2018-08-12T06:01:51.758Z,90.40
2018-08-12T06:04:20.311Z,90.50
2018-08-12T06:06:48.906Z,90.80
2018-08-12T06:09:17.506Z,90.80
2018-08-12T06:11:46.158Z,91.10
2018-08-12T06:14:14.682Z,91.20
2018-08-12T06:16:43.818Z,91.20
2018-08-12T06:19:12.395Z,90.70
2018-08-12T06:21:40.943Z,90.60
2018-08-12T06:24:09.827Z,90.20
2018-08-12T06:26:38.403Z,90.30
2018-08-12T06:29:07.135Z,90.50
2018-08-12T06:31:36.089Z,90.40
2018-08-12T06:34:04.667Z,89.50
2018-08-12T06:36:33.217Z,87.20
2018-08-12T06:39:01.809Z,87.60
2018-08-12T06:41:30.730Z,86.00
2018-08-12T06:43:59.255Z,84.90
2018-08-12T06:46:27.939Z,84.50
2018-08-12T06:48:56.658Z,85.00
2018-08-12T06:51:25.295Z,83.50
2018-08-12T06:53:53.826Z,83.20
2018-08-12T06:56:22.481Z,83.20
2018-08-12T06:58:51.130Z,81.30
2018-08-12T07:01:19.819Z,81.10
2018-08-12T07:03:48.389Z,81.10
2018-08-12T07:06:17.118Z,80.90
2018-08-12T07:08:45.667Z,80.20
2018-08-12T07:11:14.655Z,80.50
2018-08-12T07:13:43.225Z,79.00
2018-08-12T07:16:11.806Z,80.00
2018-08-12T07:18:40.361Z,79.90
2018-08-12T07:21:09.039Z,77.60
2018-08-12T07:23:37.712Z,78.40
2018-08-12T07:26:06.357Z,76.60
2018-08-12T07:28:36.528Z,76.50
2018-08-12T07:31:05.303Z,77.40
2018-08-12T07:33:34.491Z,77.00
2018-08-12T07:36:03.148Z,76.40
2018-08-12T07:38:32.146Z,75.40
2018-08-12T07:41:00.674Z,74.50
2018-08-12T07:43:29.353Z,74.30
2018-08-12T07:45:58.139Z,73.70
2018-08-12T07:48:27.073Z,73.40
2018-08-12T07:50:55.814Z,72.90
2018-08-12T07:53:24.562Z,73.10
